Time;durP1;ratioP1;P1;durP2;ratioP2;P2;SDS_P1;SDS_P2;PMS_P1;PMS_P2;Temp;Humidity;BMP_temperature;BMP_pressure;BME280_temperature;BME280_humidity;BME280_pressure;Samples;Min_cycle;Max_cycle;Signal;HPM_P1;HPM_P2
2022/10/05 00:01:22;;;;;;;5.57;4.67;;;10.90;99.90;;;;;;5071568;28;20197;-66
2022/10/05 00:03:50;;;;;;;7.10;5.50;;;10.90;99.90;;;;;;5084127;28;20188;-66
2022/10/05 00:06:17;;;;;;;8.23;5.13;;;10.90;99.90;;;;;;5074395;28;20201;-68
2022/10/05 00:08:44;;;;;;;9.87;4.67;;;10.90;99.90;;;;;;5076424;28;20735;-68
2022/10/05 00:11:14;;;;;;;8.70;5.47;;;10.90;99.90;;;;;;5087139;28;20230;-67
2022/10/05 00:13:41;;;;;;;6.70;4.60;;;10.90;99.90;;;;;;5091433;28;20216;-67
2022/10/05 00:16:15;;;;;;;8.47;4.73;;;10.90;99.90;;;;;;5091109;28;20686;-67
2022/10/05 00:18:45;;;;;;;6.13;5.00;;;10.90;99.90;;;;;;5091297;28;20191;-67
2022/10/05 00:21:19;;;;;;;9.77;4.90;;;11.00;99.90;;;;;;5091362;28;20195;-65
2022/10/05 00:23:46;;;;;;;6.93;4.90;;;11.00;99.90;;;;;;5091374;28;20184;-68
2022/10/05 00:26:19;;;;;;;7.37;4.87;;;11.00;99.90;;;;;;5091289;28;20211;-68
2022/10/05 00:28:46;;;;;;;7.90;5.00;;;11.00;99.90;;;;;;5087525;28;20241;-67
2022/10/05 00:31:18;;;;;;;6.77;4.73;;;10.90;99.90;;;;;;5086174;28;20200;-67
2022/10/05 00:33:45;;;;;;;10.57;5.20;;;10.90;99.90;;;;;;5090155;28;20216;-67
2022/10/05 00:36:13;;;;;;;7.00;4.47;;;11.00;99.90;;;;;;5087185;28;20204;-67
2022/10/05 00:38:40;;;;;;;10.07;5.20;;;11.00;99.90;;;;;;5093249;28;20222;-65
2022/10/05 00:41:13;;;;;;;9.87;5.13;;;11.00;99.90;;;;;;5094814;28;20222;-67
2022/10/05 00:44:04;;;;;;;8.63;4.90;;;11.00;99.90;;;;;;5093008;28;20184;-68
2022/10/05 00:46:38;;;;;;;12.30;4.97;;;11.00;99.90;;;;;;5075129;28;20215;-66
2022/10/05 00:49:17;;;;;;;7.00;4.63;;;11.00;99.90;;;;;;5088993;28;20227;-66
2022/10/05 00:51:51;;;;;;;6.80;4.43;;;11.00;99.90;;;;;;5083134;28;20203;-65
2022/10/05 00:54:26;;;;;;;10.43;4.80;;;11.00;99.90;;;;;;5074279;28;20564;-66
2022/10/05 00:57:15;;;;;;;6.90;4.70;;;11.00;99.90;;;;;;5085128;28;20221;-67
2022/10/05 00:59:54;;;;;;;6.87;4.60;;;10.90;99.90;;;;;;5094735;28;20553;-65
2022/10/05 01:02:29;;;;;;;9.70;4.80;;;11.00;99.90;;;;;;5094143;28;20561;-66
2022/10/05 01:05:02;;;;;;;8.07;4.40;;;11.00;99.90;;;;;;5084441;28;20214;-67
2022/10/05 01:07:39;;;;;;;7.27;4.47;;;11.00;99.90;;;;;;5091828;28;20569;-65
2022/10/05 01:10:15;;;;;;;5.07;4.13;;;11.00;99.90;;;;;;5093673;28;20246;-67
2022/10/05 01:12:49;;;;;;;8.63;4.40;;;11.00;99.90;;;;;;5094344;28;20184;-67
2022/10/05 01:15:24;;;;;;;6.30;4.30;;;10.90;99.90;;;;;;5092918;28;20621;-66
2022/10/05 01:17:57;;;;;;;6.70;4.30;;;11.00;99.90;;;;;;5094325;28;20196;-65
2022/10/05 01:20:41;;;;;;;4.90;4.13;;;10.90;99.90;;;;;;5093910;28;20192;-67
2022/10/05 01:23:47;;;;;;;7.63;4.30;;;10.90;99.90;;;;;;5093672;28;20212;-67
2022/10/05 01:26:46;;;;;;;6.23;4.00;;;10.90;99.90;;;;;;5092671;28;20199;-66
2022/10/05 01:29:19;;;;;;;9.83;4.07;;;10.90;99.90;;;;;;5093611;28;20184;-67
2022/10/05 01:31:51;;;;;;;8.10;4.20;;;10.90;99.90;;;;;;5093895;28;20199;-66
2022/10/05 01:34:26;;;;;;;7.57;4.47;;;10.90;99.90;;;;;;5094005;28;20188;-67
2022/10/05 01:37:02;;;;;;;7.93;4.50;;;10.90;99.90;;;;;;5092707;28;20544;-66
2022/10/05 01:39:35;;;;;;;6.77;4.33;;;10.90;99.90;;;;;;5093642;28;20283;-65
2022/10/05 01:42:09;;;;;;;7.70;4.10;;;10.80;99.90;;;;;;5093414;28;20222;-67
2022/10/05 01:44:43;;;;;;;8.53;4.63;;;10.80;99.90;;;;;;5093952;28;20199;-67
2022/10/05 01:47:17;;;;;;;6.20;4.13;;;10.80;99.90;;;;;;5092574;28;20980;-67
2022/10/05 01:49:52;;;;;;;6.43;4.17;;;10.80;99.90;;;;;;5093434;28;20188;-66
2022/10/05 01:52:28;;;;;;;8.13;4.53;;;10.70;99.90;;;;;;5093739;28;20206;-66
2022/10/05 01:55:06;;;;;;;9.60;4.97;;;10.70;99.90;;;;;;5093197;28;20192;-67
2022/10/05 01:57:45;;;;;;;5.73;4.30;;;10.70;99.90;;;;;;5091085;28;20210;-67
2022/10/05 02:00:16;;;;;;;5.57;4.40;;;10.70;99.90;;;;;;5093274;28;20198;-66
2022/10/05 02:02:47;;;;;;;9.00;4.50;;;10.70;99.90;;;;;;5092340;28;20237;-67
2022/10/05 02:05:20;;;;;;;8.70;4.80;;;10.60;99.90;;;;;;5092685;28;20591;-67
2022/10/05 02:07:52;;;;;;;9.67;4.63;;;10.60;99.90;;;;;;5092463;28;20199;-66
2022/10/05 02:10:24;;;;;;;5.17;4.00;;;10.60;99.90;;;;;;5092608;28;20594;-65
2022/10/05 02:12:58;;;;;;;7.00;3.87;;;10.60;99.90;;;;;;5093021;28;20191;-65
2022/10/05 02:15:32;;;;;;;6.47;4.03;;;10.50;99.90;;;;;;5092278;28;20204;-65
2022/10/05 02:18:04;;;;;;;6.17;4.00;;;10.40;99.90;;;;;;5091949;28;20209;-67
2022/10/05 02:20:34;;;;;;;5.90;4.13;;;10.50;99.90;;;;;;5090951;28;20188;-66
2022/10/05 02:23:06;;;;;;;6.33;4.60;;;10.50;99.90;;;;;;5089891;28;20724;-66
2022/10/05 02:25:36;;;;;;;7.43;4.20;;;10.50;99.90;;;;;;5093187;28;20227;-67
2022/10/05 02:28:08;;;;;;;9.83;4.53;;;10.40;99.90;;;;;;5093005;28;20201;-66
2022/10/05 02:30:43;;;;;;;6.20;4.07;;;10.40;99.90;;;;;;5091595;28;20193;-66
2022/10/05 02:33:18;;;;;;;8.50;4.70;;;10.50;99.90;;;;;;5092939;28;20184;-67
2022/10/05 02:35:45;;;;;;;7.20;4.40;;;10.50;99.90;;;;;;5092650;28;20194;-67
2022/10/05 02:38:18;;;;;;;9.13;4.60;;;10.50;99.90;;;;;;5091966;28;20238;-66
2022/10/05 02:40:53;;;;;;;5.67;4.17;;;10.40;99.90;;;;;;5092487;28;20190;-66
2022/10/05 02:43:27;;;;;;;4.73;3.77;;;10.40;99.90;;;;;;5092797;28;20568;-65
2022/10/05 02:46:08;;;;;;;5.87;4.07;;;10.50;99.90;;;;;;5092304;28;20241;-68
2022/10/05 02:48:42;;;;;;;8.87;4.67;;;10.50;99.90;;;;;;5091806;28;20793;-67
2022/10/05 02:51:15;;;;;;;6.63;4.53;;;10.50;99.90;;;;;;5092506;28;20228;-66
2022/10/05 02:53:53;;;;;;;6.63;4.10;;;10.50;99.90;;;;;;5092373;28;20745;-67
2022/10/05 02:56:25;;;;;;;8.57;3.97;;;10.50;99.90;;;;;;5091440;28;20204;-69
2022/10/05 02:59:01;;;;;;;10.50;4.03;;;10.60;99.90;;;;;;5090753;28;20208;-67
2022/10/05 03:01:35;;;;;;;5.70;4.50;;;10.50;99.90;;;;;;5092384;28;20188;-65
2022/10/05 03:04:14;;;;;;;7.87;4.30;;;10.50;99.90;;;;;;5091957;28;20208;-67
2022/10/05 03:06:50;;;;;;;10.30;4.63;;;10.50;99.90;;;;;;5092132;28;20282;-66
2022/10/05 03:09:20;;;;;;;7.77;4.33;;;10.50;99.90;;;;;;5091082;28;20246;-65
2022/10/05 03:12:02;;;;;;;8.10;4.30;;;10.50;99.90;;;;;;5091783;28;20219;-68
2022/10/05 03:14:38;;;;;;;5.57;4.17;;;10.50;99.90;;;;;;5092586;28;20208;-67
2022/10/05 03:17:14;;;;;;;7.37;4.60;;;10.50;99.90;;;;;;5090566;28;20199;-66
2022/10/05 03:20:07;;;;;;;7.23;4.00;;;10.60;99.90;;;;;;5071897;28;20215;-66
2022/10/05 03:22:46;;;;;;;5.30;4.27;;;10.60;99.90;;;;;;5071665;28;20213;-66
2022/10/05 03:25:49;;;;;;;7.63;4.67;;;10.50;99.90;;;;;;5072083;28;20189;-67
2022/10/05 03:28:23;;;;;;;6.30;4.57;;;10.50;99.90;;;;;;5076703;28;20206;-66
2022/10/05 03:31:00;;;;;;;7.40;4.63;;;10.50;99.90;;;;;;5091861;28;20527;-67
2022/10/05 03:33:37;;;;;;;6.73;4.30;;;10.50;99.90;;;;;;5092056;28;20206;-66
2022/10/05 03:36:11;;;;;;;8.27;4.67;;;10.40;99.90;;;;;;5091707;28;20197;-67
2022/10/05 03:38:44;;;;;;;7.83;4.67;;;10.50;99.90;;;;;;5090512;28;20306;-66
2022/10/05 03:41:20;;;;;;;9.10;4.90;;;10.50;99.90;;;;;;5091961;28;20283;-66
2022/10/05 03:44:16;;;;;;;6.43;4.90;;;10.40;99.90;;;;;;5091640;28;20208;-66
2022/10/05 03:46:56;;;;;;;8.20;4.90;;;10.40;99.90;;;;;;5091322;28;20192;-67
2022/10/05 03:49:35;;;;;;;8.07;4.43;;;10.40;99.90;;;;;;5091100;28;20208;-69
2022/10/05 03:52:07;;;;;;;5.93;4.40;;;10.40;99.90;;;;;;5091677;28;20192;-67
2022/10/05 03:54:38;;;;;;;6.67;4.53;;;10.40;99.90;;;;;;5091263;28;20216;-66
2022/10/05 03:57:11;;;;;;;6.67;3.97;;;10.40;99.90;;;;;;5091591;28;20192;-66
2022/10/05 03:59:42;;;;;;;6.17;4.30;;;10.40;99.90;;;;;;5071413;28;20200;-66
2022/10/05 04:02:20;;;;;;;6.60;4.07;;;10.40;99.90;;;;;;5071083;28;20192;-67
2022/10/05 04:04:54;;;;;;;7.00;4.63;;;10.40;99.90;;;;;;5074854;28;20637;-66
2022/10/05 04:07:41;;;;;;;7.43;4.33;;;10.40;99.90;;;;;;5076099;28;20215;-68
2022/10/05 04:10:16;;;;;;;6.07;4.33;;;10.40;99.90;;;;;;5095135;28;20593;-67
2022/10/05 04:12:46;;;;;;;8.37;4.00;;;10.40;99.90;;;;;;5095453;28;20272;-66
2022/10/05 04:15:25;;;;;;;9.23;4.57;;;10.40;99.90;;;;;;5095712;28;20204;-67
2022/10/05 04:17:56;;;;;;;5.93;4.20;;;10.40;99.90;;;;;;5092552;28;20200;-66
2022/10/05 04:20:29;;;;;;;7.37;4.57;;;10.40;99.90;;;;;;5086852;28;20214;-66
2022/10/05 04:23:05;;;;;;;7.53;4.60;;;10.40;99.90;;;;;;5095381;28;20215;-67
2022/10/05 04:25:37;;;;;;;7.27;4.30;;;10.40;99.90;;;;;;5095368;28;20651;-67
2022/10/05 04:28:11;;;;;;;8.23;5.27;;;10.40;99.90;;;;;;5094908;28;20184;-65
2022/10/05 04:30:42;;;;;;;7.13;4.80;;;10.40;99.90;;;;;;5094114;28;20203;-66
2022/10/05 04:33:11;;;;;;;10.40;4.87;;;10.50;99.90;;;;;;5094979;28;20185;-67
2022/10/05 04:35:59;;;;;;;6.13;4.50;;;10.50;99.90;;;;;;5094758;28;20234;-67
2022/10/05 04:38:41;;;;;;;7.60;4.70;;;10.50;99.90;;;;;;5092033;28;20204;-66
2022/10/05 04:41:21;;;;;;;7.70;4.50;;;10.50;99.90;;;;;;5095064;28;20625;-67
2022/10/05 04:44:01;;;;;;;7.53;4.30;;;10.50;99.90;;;;;;5092426;28;20214;-66
2022/10/05 04:46:38;;;;;;;7.30;4.63;;;10.60;99.90;;;;;;5094803;28;20192;-66
2022/10/05 04:49:24;;;;;;;7.47;5.30;;;10.50;99.90;;;;;;5094260;28;20201;-68
2022/10/05 04:52:03;;;;;;;7.23;4.47;;;10.50;99.90;;;;;;5093249;28;20198;-67
2022/10/05 04:54:40;;;;;;;7.03;4.80;;;10.50;99.90;;;;;;5074345;28;20584;-67
2022/10/05 04:57:13;;;;;;;6.97;4.80;;;10.50;99.90;;;;;;5074469;28;20570;-66
2022/10/05 05:00:18;;;;;;;7.27;4.57;;;10.60;99.90;;;;;;5074142;28;20547;-66
2022/10/05 05:03:08;;;;;;;6.63;4.20;;;10.60;99.90;;;;;;5052386;28;20587;-66
2022/10/05 05:05:43;;;;;;;7.50;4.43;;;10.60;99.90;;;;;;5072313;28;20595;-67
2022/10/05 05:08:27;;;;;;;8.23;4.93;;;10.60;99.90;;;;;;5094566;28;20540;-66
2022/10/05 05:11:26;;;;;;;9.43;5.13;;;10.50;99.90;;;;;;5094650;28;20196;-67
2022/10/05 05:14:26;;;;;;;7.57;4.17;;;10.60;99.90;;;;;;5060347;28;20210;-66
2022/10/05 05:17:04;;;;;;;7.10;4.10;;;10.60;99.90;;;;;;5094044;28;20451;-66
2022/10/05 05:19:41;;;;;;;7.40;4.30;;;10.60;99.90;;;;;;5092577;28;20203;-66
2022/10/05 05:22:15;;;;;;;9.93;4.27;;;10.60;99.90;;;;;;5094488;28;20732;-67
2022/10/05 05:25:03;;;;;;;7.17;4.20;;;10.70;99.90;;;;;;5092864;28;20217;-67
2022/10/05 05:27:51;;;;;;;12.40;4.93;;;10.70;99.90;;;;;;5092580;28;20242;-67
2022/10/05 05:30:21;;;;;;;9.60;4.87;;;10.70;99.90;;;;;;5094391;28;20188;-67
2022/10/05 05:33:00;;;;;;;9.87;5.67;;;10.70;99.90;;;;;;5094269;28;20192;-67
2022/10/05 05:35:50;;;;;;;9.53;4.83;;;10.70;99.90;;;;;;5093343;28;20200;-66
2022/10/05 05:38:29;;;;;;;8.93;4.70;;;10.70;99.90;;;;;;5093633;28;20223;-66
2022/10/05 05:41:08;;;;;;;8.87;5.43;;;10.80;99.90;;;;;;5093737;28;20191;-67
2022/10/05 05:43:46;;;;;;;8.97;4.70;;;10.80;99.90;;;;;;5093433;28;20680;-66
2022/10/05 05:46:21;;;;;;;7.10;4.70;;;10.90;99.90;;;;;;5093498;28;20192;-66
2022/10/05 05:48:50;;;;;;;7.43;4.60;;;10.90;99.90;;;;;;5093803;28;20411;-66
2022/10/05 05:51:20;;;;;;;9.60;4.50;;;11.00;99.90;;;;;;5093690;28;20239;-66
2022/10/05 05:53:51;;;;;;;7.10;4.53;;;11.00;99.90;;;;;;5085140;28;20196;-66
2022/10/05 05:56:24;;;;;;;6.33;3.83;;;11.00;99.90;;;;;;5083346;28;20204;-67
2022/10/05 05:58:54;;;;;;;6.10;4.00;;;11.00;99.90;;;;;;5082199;28;20193;-67
2022/10/05 06:01:28;;;;;;;5.37;3.53;;;11.00;99.90;;;;;;5081008;28;20628;-67
2022/10/05 06:03:59;;;;;;;10.53;4.33;;;11.00;99.90;;;;;;5082521;28;20215;-67
2022/10/05 06:06:32;;;;;;;6.47;3.60;;;11.00;99.90;;;;;;5080190;28;20200;-69
2022/10/05 06:09:02;;;;;;;7.63;3.80;;;11.00;99.90;;;;;;5086278;28;20309;-66
2022/10/05 06:11:36;;;;;;;6.00;3.57;;;11.10;99.90;;;;;;5081133;28;20197;-67
2022/10/05 06:14:10;;;;;;;8.00;4.03;;;11.10;99.90;;;;;;5080883;28;20220;-66
2022/10/05 06:16:44;;;;;;;5.00;3.67;;;11.10;99.90;;;;;;5080759;28;20677;-66
2022/10/05 06:19:15;;;;;;;6.27;3.50;;;11.20;99.90;;;;;;5081740;28;20707;-66
2022/10/05 06:21:47;;;;;;;10.03;3.37;;;11.20;99.90;;;;;;5083358;28;20192;-66
2022/10/05 06:24:20;;;;;;;9.07;3.50;;;11.20;99.90;;;;;;5075998;28;20208;-67
2022/10/05 06:27:13;;;;;;;7.73;3.60;;;11.30;99.90;;;;;;5071859;28;20522;-67
2022/10/05 06:30:05;;;;;;;5.33;3.50;;;11.30;99.90;;;;;;5072623;28;20212;-67
2022/10/05 06:32:36;;;;;;;8.33;3.70;;;11.30;99.90;;;;;;5079102;28;20196;-68
2022/10/05 06:35:19;;;;;;;8.13;3.33;;;11.30;99.90;;;;;;5092922;28;20652;-66
2022/10/05 06:38:20;;;;;;;4.60;3.40;;;11.40;99.90;;;;;;5092814;28;20192;-66
2022/10/05 06:40:59;;;;;;;9.30;3.23;;;11.40;99.90;;;;;;5092461;28;20199;-67
2022/10/05 06:43:43;;;;;;;5.87;3.30;;;11.50;99.90;;;;;;5092313;28;20194;-66
2022/10/05 06:46:18;;;;;;;4.73;3.30;;;11.50;99.90;;;;;;5092607;28;20203;-66
2022/10/05 06:49:07;;;;;;;6.97;3.40;;;11.50;99.90;;;;;;5090448;28;20203;-67
2022/10/05 06:51:43;;;;;;;5.43;3.10;;;11.60;99.90;;;;;;5092299;28;20204;-68
2022/10/05 06:54:23;;;;;;;6.43;3.47;;;11.60;99.90;;;;;;5092705;28;20522;-68
2022/10/05 06:56:56;;;;;;;8.17;3.37;;;11.50;99.90;;;;;;5092708;28;20192;-69
2022/10/05 06:59:30;;;;;;;4.97;3.23;;;11.50;99.90;;;;;;5092011;28;20241;-69
2022/10/05 07:02:05;;;;;;;4.83;2.83;;;11.60;99.90;;;;;;5091818;28;20566;-68
2022/10/05 07:04:45;;;;;;;7.27;3.27;;;11.70;99.90;;;;;;5092184;28;20238;-67
2022/10/05 07:07:22;;;;;;;4.93;2.90;;;11.80;99.90;;;;;;5092165;28;20195;-67
2022/10/05 07:10:02;;;;;;;6.20;3.10;;;11.80;99.90;;;;;;5090029;28;20242;-68
2022/10/05 07:12:40;;;;;;;5.83;2.80;;;11.90;99.90;;;;;;5092052;28;20188;-69
2022/10/05 07:15:29;;;;;;;5.37;3.20;;;11.90;99.90;;;;;;5091012;28;20307;-69
2022/10/05 07:18:10;;;;;;;4.80;2.90;;;12.00;99.90;;;;;;5092360;28;20606;-67
2022/10/05 07:20:47;;;;;;;4.03;3.00;;;12.10;99.90;;;;;;5090149;28;20200;-68
2022/10/05 07:23:28;;;;;;;6.73;3.30;;;12.10;99.90;;;;;;5091723;28;20196;-67
2022/10/05 07:26:04;;;;;;;5.23;3.10;;;12.20;99.90;;;;;;5089906;28;20188;-67
2022/10/05 07:28:44;;;;;;;5.23;2.87;;;12.20;99.90;;;;;;5091974;28;20541;-67
2022/10/05 07:31:21;;;;;;;7.17;2.93;;;12.30;99.90;;;;;;5092041;28;20245;-68
2022/10/05 07:33:58;;;;;;;4.10;2.73;;;12.30;99.90;;;;;;5092206;28;20183;-68
2022/10/05 07:39:24;;;;;;;4.83;2.90;;;12.40;99.90;;;;;;5094798;28;20203;-69
2022/10/05 07:41:59;;;;;;;6.90;2.87;;;12.30;99.90;;;;;;5094222;28;20196;-68
2022/10/05 07:44:32;;;;;;;5.50;2.70;;;12.30;99.90;;;;;;5095859;28;20566;-68
2022/10/05 07:47:09;;;;;;;6.67;4.13;;;12.30;99.90;;;;;;5095795;28;20204;-66
2022/10/05 07:49:45;;;;;;;5.70;2.97;;;12.40;99.90;;;;;;5091931;28;20214;-67
2022/10/05 07:52:17;;;;;;;7.60;3.20;;;12.40;99.90;;;;;;5095622;28;20194;-67
2022/10/05 07:54:55;;;;;;;5.73;3.03;;;12.50;99.90;;;;;;5095841;28;20195;-68
2022/10/05 07:57:30;;;;;;;6.43;3.33;;;12.50;99.90;;;;;;5095746;28;20628;-67
2022/10/05 08:00:01;;;;;;;4.90;2.83;;;12.60;99.90;;;;;;5096051;28;20191;-68
2022/10/05 08:02:37;;;;;;;5.27;2.53;;;12.70;99.90;;;;;;5095919;28;20278;-68
2022/10/05 08:05:11;;;;;;;4.70;2.50;;;12.80;99.90;;;;;;5088059;28;20252;-67
2022/10/05 08:07:39;;;;;;;5.27;2.53;;;12.90;99.90;;;;;;5095360;28;20193;-67
2022/10/05 08:10:22;;;;;;;3.07;2.20;;;13.00;99.90;;;;;;5093820;28;20239;-68
2022/10/05 08:13:01;;;;;;;5.10;2.20;;;13.00;99.90;;;;;;5095152;28;20196;-67
2022/10/05 08:15:34;;;;;;;6.47;2.60;;;13.10;99.90;;;;;;5095229;28;20224;-67
2022/10/05 08:18:05;;;;;;;5.20;2.80;;;13.20;99.90;;;;;;5094149;28;20195;-67
2022/10/05 08:20:40;;;;;;;4.77;2.50;;;13.30;99.90;;;;;;5093915;28;20295;-68
2022/10/05 08:23:17;;;;;;;3.57;2.30;;;13.40;99.90;;;;;;5095502;28;20520;-67
2022/10/05 08:25:51;;;;;;;5.07;2.20;;;13.40;99.90;;;;;;5095300;28;20204;-68
2022/10/05 08:28:23;;;;;;;4.27;2.27;;;13.40;99.90;;;;;;5094747;28;20190;-68
2022/10/05 08:30:55;;;;;;;4.33;2.27;;;13.40;99.90;;;;;;5095250;28;20521;-66
2022/10/05 08:33:27;;;;;;;5.13;2.47;;;13.40;99.90;;;;;;5094958;28;20199;-67
2022/10/05 08:36:02;;;;;;;3.20;2.43;;;13.50;99.90;;;;;;5082727;28;20196;-66
2022/10/05 08:38:32;;;;;;;5.17;2.00;;;13.50;99.90;;;;;;5075237;28;20193;-67
2022/10/05 08:41:24;;;;;;;5.90;2.50;;;13.50;99.90;;;;;;5074907;28;20200;-68
2022/10/05 08:44:34;;;;;;;5.30;2.77;;;13.50;99.90;;;;;;5074835;28;20549;-69
2022/10/05 08:47:13;;;;;;;4.77;2.60;;;13.50;99.90;;;;;;5088867;28;20287;-69
2022/10/05 08:50:18;;;;;;;6.37;2.50;;;13.60;99.90;;;;;;5094287;28;20657;-68
2022/10/05 08:53:18;;;;;;;3.57;2.40;;;13.70;99.90;;;;;;5092280;28;20591;-70
2022/10/05 08:56:04;;;;;;;9.47;2.43;;;13.70;99.90;;;;;;5078478;28;20269;-69
2022/10/05 08:59:08;;;;;;;4.53;2.50;;;13.80;99.90;;;;;;5083817;28;20200;-68
2022/10/05 09:01:52;;;;;;;8.00;3.10;;;13.80;99.90;;;;;;5051112;28;20204;-67
2022/10/05 09:04:31;;;;;;;5.13;2.40;;;13.80;99.90;;;;;;5093517;28;20212;-67
2022/10/05 09:07:27;;;;;;;3.90;2.50;;;13.90;99.90;;;;;;5094346;28;20199;-66
2022/10/05 09:10:47;;;;;;;5.57;2.27;;;13.90;99.90;;;;;;5093178;28;20609;-67
2022/10/05 09:14:03;;;;;;;6.53;2.50;;;14.00;99.90;;;;;;5094284;28;20667;-68
2022/10/05 09:16:50;;;;;;;4.27;2.50;;;14.00;99.90;;;;;;5093703;28;20204;-70
2022/10/05 09:20:01;;;;;;;3.57;2.20;;;14.00;99.90;;;;;;5093040;28;20214;-67
2022/10/05 09:22:57;;;;;;;4.40;2.10;;;14.00;99.90;;;;;;5093665;28;20289;-69
2022/10/05 09:25:36;;;;;;;4.70;2.53;;;13.90;99.90;;;;;;5094158;28;20219;-67
2022/10/05 09:28:18;;;;;;;5.43;2.17;;;13.90;99.90;;;;;;5093380;28;20531;-67
2022/10/05 09:30:57;;;;;;;5.63;2.40;;;13.90;99.90;;;;;;5074233;28;20291;-68
2022/10/05 09:33:52;;;;;;;4.50;2.20;;;14.00;99.90;;;;;;5089695;28;20212;-67
2022/10/05 09:36:54;;;;;;;3.37;2.00;;;14.00;99.90;;;;;;5092289;28;20230;-68
2022/10/05 09:39:44;;;;;;;3.90;2.10;;;14.00;99.90;;;;;;5073700;28;20184;-68
2022/10/05 09:42:43;;;;;;;3.70;2.13;;;14.10;99.90;;;;;;5079782;28;20279;-69
2022/10/05 09:45:43;;;;;;;8.90;2.70;;;14.10;99.90;;;;;;5093692;28;20208;-68
2022/10/05 09:48:46;;;;;;;6.70;2.67;;;14.10;99.90;;;;;;5091157;28;20672;-69
2022/10/05 09:52:05;;;;;;;4.80;2.43;;;14.10;99.90;;;;;;5085784;28;20204;-68
2022/10/05 09:55:10;;;;;;;4.50;2.30;;;14.10;99.90;;;;;;5013513;28;20194;-68
2022/10/05 09:58:19;;;;;;;5.63;2.50;;;14.10;99.90;;;;;;5088303;28;20210;-69
2022/10/05 10:01:20;;;;;;;4.63;2.70;;;14.10;99.90;;;;;;5085165;28;20585;-70
2022/10/05 10:04:06;;;;;;;4.03;2.40;;;14.00;99.90;;;;;;5093625;28;20200;-68
2022/10/05 10:07:14;;;;;;;4.90;2.50;;;14.10;99.90;;;;;;5093189;28;20239;-72
2022/10/05 10:10:04;;;;;;;6.80;2.20;;;14.10;99.90;;;;;;5025143;28;20347;-68
2022/10/05 10:12:42;;;;;;;3.97;2.30;;;14.10;99.90;;;;;;5024212;28;20213;-68
2022/10/05 10:15:42;;;;;;;6.17;2.77;;;14.10;99.90;;;;;;5070222;28;20602;-66
2022/10/05 10:18:36;;;;;;;4.27;2.60;;;14.10;99.90;;;;;;5092858;28;20663;-69
2022/10/05 10:21:29;;;;;;;3.00;1.97;;;14.20;99.90;;;;;;5093217;28;20648;-68
2022/10/05 10:24:15;;;;;;;6.97;2.07;;;14.30;99.90;;;;;;5087866;28;20212;-69
2022/10/05 10:26:56;;;;;;;4.27;2.10;;;14.40;99.90;;;;;;5085307;28;20208;-68
2022/10/05 10:29:59;;;;;;;4.33;2.27;;;14.40;99.90;;;;;;5090941;28;20203;-68
2022/10/05 10:32:55;;;;;;;3.50;2.07;;;14.50;99.90;;;;;;5072712;28;20204;-68
2022/10/05 10:35:34;;;;;;;3.83;2.00;;;14.60;99.90;;;;;;5087461;28;20547;-71
2022/10/05 10:38:47;;;;;;;3.13;2.10;;;14.70;99.90;;;;;;5090315;28;20290;-69
2022/10/05 10:41:27;;;;;;;5.13;2.43;;;14.80;99.90;;;;;;5084767;28;20648;-69
2022/10/05 10:44:23;;;;;;;2.60;2.10;;;14.80;99.90;;;;;;5091281;28;20295;-69
2022/10/05 10:47:22;;;;;;;5.53;2.23;;;14.90;99.90;;;;;;5092284;28;20195;-68
2022/10/05 10:50:22;;;;;;;2.47;2.00;;;14.90;99.90;;;;;;5090742;28;20220;-68
2022/10/05 10:53:08;;;;;;;4.20;1.80;;;14.90;99.90;;;;;;5081093;28;20246;-68
2022/10/05 10:55:43;;;;;;;3.00;2.00;;;15.00;99.90;;;;;;5089816;28;20617;-67
2022/10/05 10:58:49;;;;;;;3.87;1.77;;;15.00;99.90;;;;;;5076949;28;20195;-71
2022/10/05 11:01:29;;;;;;;2.17;1.90;;;15.00;99.90;;;;;;5091234;28;20203;-68
2022/10/05 11:04:35;;;;;;;3.37;2.20;;;15.00;99.90;;;;;;5087540;28;20210;-69
2022/10/05 11:07:23;;;;;;;3.43;2.10;;;15.00;99.90;;;;;;5069882;28;20204;-69
2022/10/05 11:10:20;;;;;;;4.93;2.00;;;15.00;99.90;;;;;;5083882;28;20597;-68
2022/10/05 11:13:23;;;;;;;3.70;2.20;;;15.00;99.90;;;;;;5085838;28;20242;-67
2022/10/05 11:16:29;;;;;;;4.60;2.13;;;15.10;99.90;;;;;;5089594;28;20246;-67
2022/10/05 11:19:32;;;;;;;4.50;2.30;;;15.10;99.90;;;;;;5082773;28;20212;-68
2022/10/05 11:22:27;;;;;;;4.33;2.10;;;15.10;99.90;;;;;;5090227;28;20207;-69
2022/10/05 11:25:09;;;;;;;3.17;2.20;;;15.10;99.90;;;;;;5066127;28;20251;-70
2022/10/05 11:27:59;;;;;;;3.33;2.17;;;15.10;99.90;;;;;;5086700;28;20204;-68
2022/10/05 11:30:45;;;;;;;3.00;1.90;;;15.10;99.90;;;;;;5081298;28;20248;-66
2022/10/05 11:33:47;;;;;;;5.70;2.03;;;15.10;99.90;;;;;;5081771;28;20223;-67
2022/10/05 11:36:38;;;;;;;4.33;2.10;;;15.10;99.90;;;;;;5077225;28;20202;-67
2022/10/05 11:39:24;;;;;;;2.63;2.10;;;15.10;99.90;;;;;;5081064;28;20193;-69
2022/10/05 11:42:29;;;;;;;3.00;2.10;;;15.10;99.90;;;;;;5090388;28;20204;-68
2022/10/05 11:45:20;;;;;;;7.87;2.50;;;15.10;99.90;;;;;;5075893;28;20237;-68
2022/10/05 11:48:13;;;;;;;3.63;2.13;;;15.10;99.90;;;;;;5091916;28;20262;-67
2022/10/05 11:50:49;;;;;;;3.80;2.10;;;15.10;99.90;;;;;;5091915;28;20218;-68
2022/10/05 11:53:24;;;;;;;7.27;2.23;;;15.10;99.90;;;;;;5092492;28;20632;-71
2022/10/05 11:56:02;;;;;;;3.10;2.10;;;15.10;99.90;;;;;;5087736;28;20192;-67
2022/10/05 11:58:33;;;;;;;6.20;2.50;;;15.10;99.90;;;;;;5089493;28;20197;-67
2022/10/05 12:01:14;;;;;;;4.73;2.20;;;15.10;99.90;;;;;;5087421;28;20703;-67
2022/10/05 12:03:50;;;;;;;3.20;2.20;;;15.00;99.90;;;;;;5088826;28;20224;-68
2022/10/05 12:06:33;;;;;;;4.53;2.20;;;15.00;99.90;;;;;;5089964;28;20295;-68
2022/10/05 12:09:17;;;;;;;3.30;2.27;;;14.90;99.90;;;;;;5091669;28;20676;-70
2022/10/05 12:11:58;;;;;;;3.87;2.03;;;14.90;99.90;;;;;;5086030;28;20219;-67
2022/10/05 12:14:32;;;;;;;3.73;2.00;;;14.90;99.90;;;;;;5091168;28;20212;-70
2022/10/05 12:17:10;;;;;;;3.27;2.17;;;15.00;99.90;;;;;;5088262;28;20725;-68
2022/10/05 12:19:41;;;;;;;5.00;2.20;;;15.00;99.90;;;;;;5083808;28;20651;-69
2022/10/05 12:22:16;;;;;;;4.20;2.23;;;14.90;99.90;;;;;;5087481;28;20192;-69
2022/10/05 12:25:00;;;;;;;5.23;2.10;;;14.90;99.90;;;;;;5093201;28;20207;-70
2022/10/05 12:27:32;;;;;;;3.23;2.10;;;14.90;99.90;;;;;;5095418;28;20393;-70
2022/10/05 12:30:05;;;;;;;4.10;1.80;;;14.90;99.90;;;;;;5095914;28;20192;-69
2022/10/05 12:32:39;;;;;;;4.73;2.47;;;14.90;99.90;;;;;;5095050;28;20192;-69
2022/10/05 12:35:13;;;;;;;3.70;2.03;;;14.90;99.90;;;;;;5095500;28;20188;-69
2022/10/05 12:37:46;;;;;;;4.47;2.40;;;14.80;99.90;;;;;;5095131;28;20192;-68
2022/10/05 12:40:27;;;;;;;6.13;3.00;;;14.80;99.90;;;;;;5094925;28;20192;-69
2022/10/05 12:43:07;;;;;;;7.33;2.97;;;14.80;99.90;;;;;;5095221;28;20207;-70
2022/10/05 12:45:46;;;;;;;3.87;1.90;;;14.80;99.90;;;;;;5074789;28;20276;-72
2022/10/05 12:48:33;;;;;;;10.20;2.37;;;14.80;99.90;;;;;;5090898;28;20227;-70
2022/10/05 12:51:08;;;;;;;3.17;2.03;;;14.80;99.90;;;;;;5074044;28;20189;-67
2022/10/05 12:53:48;;;;;;;2.67;1.77;;;14.80;99.90;;;;;;5074360;28;20185;-67
2022/10/05 12:56:27;;;;;;;2.43;1.77;;;14.70;99.90;;;;;;5088023;28;20284;-68
2022/10/05 12:59:00;;;;;;;2.80;2.07;;;14.70;99.90;;;;;;5094228;28;20207;-68
2022/10/05 13:01:35;;;;;;;4.07;2.30;;;14.70;99.90;;;;;;5094335;28;20652;-68
2022/10/05 13:04:17;;;;;;;4.10;2.03;;;14.70;99.90;;;;;;5094102;28;20188;-68
2022/10/05 13:06:50;;;;;;;3.80;1.90;;;14.70;99.90;;;;;;5090285;28;20555;-68
2022/10/05 13:09:24;;;;;;;6.17;2.00;;;14.70;99.90;;;;;;5094122;28;20239;-68
2022/10/05 13:11:54;;;;;;;4.60;2.10;;;14.70;99.90;;;;;;5094358;28;20292;-69
2022/10/05 13:14:43;;;;;;;4.30;1.90;;;14.70;99.90;;;;;;5093849;28;20196;-68
2022/10/05 13:17:18;;;;;;;3.17;1.90;;;14.70;99.90;;;;;;5093516;28;20697;-68
2022/10/05 13:19:51;;;;;;;7.47;2.00;;;14.70;99.90;;;;;;5094104;28;20192;-67
2022/10/05 13:22:30;;;;;;;2.73;1.67;;;14.70;99.90;;;;;;5088395;28;20210;-70
2022/10/05 13:25:08;;;;;;;4.03;1.90;;;14.70;99.90;;;;;;5093194;28;20200;-68
2022/10/05 13:27:40;;;;;;;3.87;1.80;;;14.70;99.90;;;;;;5091442;28;20203;-70
2022/10/05 13:30:14;;;;;;;3.13;1.97;;;14.70;99.90;;;;;;5073878;28;20190;-70
2022/10/05 13:32:46;;;;;;;2.23;1.80;;;14.70;99.90;;;;;;5083114;28;20211;-70
2022/10/05 13:35:43;;;;;;;4.53;1.93;;;14.70;99.90;;;;;;5094135;28;20211;-68
2022/10/05 13:38:21;;;;;;;3.50;2.00;;;14.70;99.90;;;;;;5093813;28;20562;-70
2022/10/05 13:40:56;;;;;;;3.73;2.00;;;14.70;99.90;;;;;;5088280;28;20199;-68
2022/10/05 13:43:29;;;;;;;4.90;2.20;;;14.70;99.90;;;;;;5083755;28;20206;-68
2022/10/05 13:46:01;;;;;;;4.07;2.13;;;14.70;99.90;;;;;;5093705;28;20218;-70
2022/10/05 13:48:52;;;;;;;4.97;2.00;;;14.70;99.90;;;;;;5074143;28;20201;-70
2022/10/05 13:51:23;;;;;;;3.93;1.90;;;14.70;99.90;;;;;;5090799;28;20224;-69
2022/10/05 13:53:56;;;;;;;7.20;2.30;;;14.70;99.90;;;;;;5091064;28;20196;-73
2022/10/05 13:56:29;;;;;;;5.67;2.33;;;14.70;99.90;;;;;;5093395;28;20633;-71